Time;durP1;ratioP1;P1;durP2;ratioP2;P2;SDS_P1;SDS_P2;PMS_P1;PMS_P2;Temp;Humidity;BMP_temperature;BMP_pressure;BME280_temperature;BME280_humidity;BME280_pressure;Samples;Min_cycle;Max_cycle;Signal;HPM_P1;HPM_P2
2023/09/03 00:00:20;;;;;;;6.50;3.47;;;12.40;99.90;;;;;;5143623;27;20043;-70
2023/09/03 00:02:45;;;;;;;5.72;3.42;;;12.40;99.90;;;;;;5152123;27;20038;-70
2023/09/03 00:05:11;;;;;;;7.35;3.25;;;12.30;99.90;;;;;;5156393;27;20039;-70
2023/09/03 00:07:37;;;;;;;4.65;3.60;;;12.20;99.90;;;;;;5137364;27;20046;-70
2023/09/03 00:10:03;;;;;;;5.05;3.42;;;12.10;99.90;;;;;;5156266;27;20035;-70
2023/09/03 00:12:28;;;;;;;6.60;3.92;;;12.10;99.90;;;;;;5136946;27;20394;-70
2023/09/03 00:14:55;;;;;;;5.88;3.83;;;12.10;99.90;;;;;;5143699;27;20407;-70
2023/09/03 00:17:20;;;;;;;5.03;3.70;;;12.10;99.90;;;;;;5137628;27;20384;-70
2023/09/03 00:19:46;;;;;;;6.05;4.07;;;12.10;99.90;;;;;;5149637;27;20165;-71
2023/09/03 00:22:12;;;;;;;16.52;4.20;;;12.10;99.90;;;;;;5153085;27;20490;-70
2023/09/03 00:24:37;;;;;;;29.00;4.57;;;12.00;99.90;;;;;;5155690;27;20068;-70
2023/09/03 00:27:03;;;;;;;7.90;3.15;;;12.00;99.90;;;;;;5147736;27;20046;-70
2023/09/03 00:29:29;;;;;;;8.40;3.40;;;11.90;99.90;;;;;;5155864;27;20046;-70
2023/09/03 00:31:56;;;;;;;19.58;4.60;;;11.80;99.90;;;;;;5150308;27;20486;-70
2023/09/03 00:34:21;;;;;;;36.00;4.68;;;11.80;99.90;;;;;;5148434;27;20038;-70
2023/09/03 00:36:48;;;;;;;12.88;2.95;;;11.60;99.90;;;;;;5155604;27;20177;-70
2023/09/03 00:39:13;;;;;;;36.97;3.58;;;11.40;99.90;;;;;;5155272;27;20035;-70
2023/09/03 00:41:39;;;;;;;26.33;3.40;;;11.30;99.90;;;;;;5152440;27;20046;-70
2023/09/03 00:44:05;;;;;;;14.32;2.30;;;11.10;99.90;;;;;;5128064;27;20050;-70
2023/09/03 00:46:31;;;;;;;2.90;1.90;;;11.00;99.90;;;;;;5137892;27;20034;-70
2023/09/03 00:48:59;;;;;;;4.45;1.65;;;10.90;99.90;;;;;;5137038;27;20058;-69
2023/09/03 00:51:25;;;;;;;2.25;1.50;;;10.90;99.90;;;;;;5154647;27;20035;-70
2023/09/03 00:53:53;;;;;;;4.00;2.00;;;10.90;99.90;;;;;;5146032;27;20047;-71
2023/09/03 00:56:20;;;;;;;5.53;2.80;;;10.90;99.90;;;;;;5139743;27;20062;-70
2023/09/03 00:58:46;;;;;;;24.50;3.40;;;10.90;99.90;;;;;;5149252;27;20055;-70
2023/09/03 01:01:13;;;;;;;6.32;3.10;;;10.80;99.90;;;;;;5141958;27;20121;-70
2023/09/03 01:03:38;;;;;;;5.32;3.72;;;10.80;99.90;;;;;;5123618;27;20371;-70
2023/09/03 01:06:05;;;;;;;4.60;3.20;;;10.90;99.90;;;;;;5155655;27;20116;-70
2023/09/03 01:08:31;;;;;;;4.72;3.30;;;11.00;99.90;;;;;;5119490;27;20046;-70
2023/09/03 01:11:11;;;;;;;4.78;3.60;;;11.00;99.90;;;;;;5152222;27;20094;-70
2023/09/03 01:14:00;;;;;;;21.48;3.90;;;11.10;99.90;;;;;;5155358;27;20074;-71
2023/09/03 01:16:33;;;;;;;14.32;3.65;;;11.00;99.90;;;;;;5155101;27;20402;-70
2023/09/03 01:19:05;;;;;;;29.27;5.22;;;10.90;99.90;;;;;;5155212;27;20047;-70
2023/09/03 01:21:57;;;;;;;41.92;5.70;;;10.90;99.90;;;;;;5154844;27;20094;-70
2023/09/03 01:25:17;;;;;;;10.30;4.65;;;11.00;99.90;;;;;;5139992;27;20103;-70
2023/09/03 01:27:57;;;;;;;5.40;3.40;;;11.00;99.90;;;;;;5034462;28;20051;-70
2023/09/03 01:30:24;;;;;;;5.47;3.72;;;11.00;99.90;;;;;;5134506;27;20373;-70
2023/09/03 01:32:50;;;;;;;10.48;3.63;;;11.10;99.90;;;;;;5135953;27;20046;-70
2023/09/03 01:35:18;;;;;;;16.33;4.35;;;11.10;99.90;;;;;;5154921;27;20046;-70
2023/09/03 01:37:44;;;;;;;9.40;4.22;;;11.00;99.90;;;;;;5154763;27;20463;-70
2023/09/03 01:40:10;;;;;;;24.60;4.30;;;10.90;99.90;;;;;;5154930;27;20129;-70
2023/09/03 01:42:36;;;;;;;40.25;5.45;;;10.90;99.90;;;;;;5154736;27;20498;-70
2023/09/03 01:45:03;;;;;;;34.20;5.22;;;10.80;99.90;;;;;;5154574;27;20058;-70
2023/09/03 01:47:39;;;;;;;7.43;3.40;;;10.70;99.90;;;;;;5155116;27;20054;-70
2023/09/03 01:50:40;;;;;;;5.03;3.45;;;10.60;99.90;;;;;;5155048;27;20082;-70
2023/09/03 01:53:12;;;;;;;4.90;3.15;;;10.50;99.90;;;;;;5153825;27;20046;-70
2023/09/03 01:55:42;;;;;;;12.88;4.28;;;10.50;99.90;;;;;;5154619;27;20043;-70
2023/09/03 01:58:10;;;;;;;5.85;4.03;;;10.50;99.90;;;;;;5154703;27;20533;-70
2023/09/03 02:00:37;;;;;;;5.78;3.67;;;10.60;99.90;;;;;;5154255;27;20047;-70
2023/09/03 02:03:04;;;;;;;5.72;3.60;;;10.60;99.90;;;;;;5155735;27;20376;-70
2023/09/03 02:05:30;;;;;;;6.07;2.90;;;10.70;99.90;;;;;;5158903;27;20046;-71
2023/09/03 02:07:56;;;;;;;3.90;3.00;;;10.70;99.90;;;;;;5158744;27;20046;-71
2023/09/03 02:10:22;;;;;;;5.03;3.30;;;10.70;99.90;;;;;;5158777;27;20039;-70
2023/09/03 02:12:47;;;;;;;5.78;3.63;;;10.70;99.90;;;;;;5158878;27;20046;-70
2023/09/03 02:15:13;;;;;;;6.22;3.63;;;10.70;99.90;;;;;;5158701;27;20118;-70
2023/09/03 02:17:39;;;;;;;5.10;3.28;;;10.60;99.90;;;;;;5158797;27;20031;-70
2023/09/03 02:20:06;;;;;;;6.00;4.00;;;10.50;99.90;;;;;;5159496;27;20042;-70
2023/09/03 02:22:31;;;;;;;6.40;3.33;;;10.60;99.90;;;;;;5158389;27;20039;-70
2023/09/03 02:24:57;;;;;;;4.93;3.47;;;10.60;99.90;;;;;;5159717;27;20506;-70
2023/09/03 02:27:23;;;;;;;4.82;3.38;;;10.60;99.90;;;;;;5158895;27;20046;-71
2023/09/03 02:29:48;;;;;;;5.10;3.50;;;10.70;99.90;;;;;;5158317;27;20051;-71
2023/09/03 02:32:14;;;;;;;4.25;3.03;;;10.70;99.90;;;;;;5158672;27;20064;-71
2023/09/03 02:34:40;;;;;;;5.10;3.78;;;10.70;99.90;;;;;;5158577;27;20042;-71
2023/09/03 02:37:05;;;;;;;6.50;4.10;;;10.70;99.90;;;;;;5158334;27;20039;-71
2023/09/03 02:39:31;;;;;;;6.22;3.42;;;10.70;99.90;;;;;;5139865;27;20103;-70
2023/09/03 02:41:57;;;;;;;4.57;3.60;;;10.70;99.90;;;;;;5158570;27;20053;-71
2023/09/03 02:44:23;;;;;;;7.95;3.40;;;10.70;99.90;;;;;;5148446;27;20039;-70
2023/09/03 02:46:49;;;;;;;4.82;3.20;;;10.70;99.90;;;;;;5137713;27;20047;-70
2023/09/03 02:49:15;;;;;;;5.75;3.80;;;10.70;99.90;;;;;;5158120;27;20103;-71
2023/09/03 02:51:40;;;;;;;5.00;3.40;;;10.60;99.90;;;;;;5157934;27;20399;-71
2023/09/03 02:54:06;;;;;;;6.32;3.20;;;10.60;99.90;;;;;;5157756;27;20043;-71
2023/09/03 02:56:33;;;;;;;5.57;3.20;;;10.60;99.90;;;;;;5158301;27;20042;-70
2023/09/03 02:58:59;;;;;;;4.45;2.97;;;10.60;99.90;;;;;;5157992;27;20035;-70
2023/09/03 03:01:25;;;;;;;4.65;3.28;;;10.60;99.90;;;;;;5157831;27;20051;-70
2023/09/03 03:03:51;;;;;;;5.47;3.80;;;10.60;99.90;;;;;;5157736;27;20433;-70
2023/09/03 03:06:16;;;;;;;7.57;3.80;;;10.60;99.90;;;;;;5158404;27;20091;-70
2023/09/03 03:08:42;;;;;;;13.50;4.65;;;10.60;99.90;;;;;;5158248;27;20479;-71
2023/09/03 03:11:09;;;;;;;15.32;4.45;;;10.60;99.90;;;;;;5139251;27;20399;-71
2023/09/03 03:13:35;;;;;;;42.33;5.40;;;10.60;99.90;;;;;;5158009;27;20437;-71
2023/09/03 03:16:07;;;;;;;25.00;4.55;;;10.60;99.90;;;;;;5156251;27;20494;-71
2023/09/03 03:18:35;;;;;;;34.90;4.80;;;10.60;99.90;;;;;;5148629;27;20439;-71
2023/09/03 03:21:06;;;;;;;33.42;4.97;;;10.60;99.90;;;;;;5157204;27;20387;-71
2023/09/03 03:23:33;;;;;;;11.10;3.60;;;10.50;99.90;;;;;;5156969;27;20113;-71
2023/09/03 03:25:59;;;;;;;82.82;6.82;;;10.50;99.90;;;;;;5153519;27;20403;-71
2023/09/03 03:28:25;;;;;;;58.70;5.63;;;10.40;99.90;;;;;;5146769;27;20054;-71
2023/09/03 03:30:51;;;;;;;29.77;4.90;;;10.30;99.90;;;;;;5148568;27;20043;-71
2023/09/03 03:33:16;;;;;;;34.75;5.00;;;10.20;99.90;;;;;;5149462;27;20072;-71
2023/09/03 03:35:42;;;;;;;22.85;3.60;;;10.10;99.90;;;;;;5156863;27;20045;-71
2023/09/03 03:38:07;;;;;;;12.15;2.60;;;10.10;99.90;;;;;;5157236;27;20399;-71
2023/09/03 03:40:33;;;;;;;9.55;3.00;;;10.00;99.90;;;;;;5157509;27;20106;-71
2023/09/03 03:42:59;;;;;;;51.88;7.07;;;10.00;99.90;;;;;;5157418;27;20039;-71
2023/09/03 03:45:24;;;;;;;45.80;5.00;;;10.00;99.90;;;;;;5157257;27;20130;-71
2023/09/03 03:47:50;;;;;;;14.13;3.65;;;9.90;99.90;;;;;;5148936;27;20038;-71
2023/09/03 03:50:16;;;;;;;3.80;2.67;;;9.90;99.90;;;;;;5157100;27;20506;-71
2023/09/03 03:52:41;;;;;;;6.32;3.45;;;9.90;99.90;;;;;;5138677;27;20497;-71
2023/09/03 03:55:07;;;;;;;5.90;3.50;;;9.90;99.90;;;;;;5156750;27;20039;-71
2023/09/03 03:57:33;;;;;;;6.97;4.20;;;9.90;99.90;;;;;;5157015;27;20150;-71
2023/09/03 03:59:58;;;;;;;5.03;3.40;;;9.90;99.90;;;;;;5156269;27;20122;-71
2023/09/03 04:02:24;;;;;;;10.88;4.18;;;9.90;99.90;;;;;;5138031;27;20041;-71
2023/09/03 04:04:53;;;;;;;5.13;2.92;;;10.00;99.90;;;;;;5156819;27;20050;-71
2023/09/03 04:07:20;;;;;;;5.70;4.05;;;10.00;99.90;;;;;;5156496;27;20386;-71
2023/09/03 04:09:46;;;;;;;6.72;3.30;;;10.00;99.90;;;;;;5114551;27;20051;-71
2023/09/03 04:12:11;;;;;;;8.25;3.95;;;9.90;99.90;;;;;;5138383;27;20100;-69
2023/09/03 04:14:37;;;;;;;18.77;3.65;;;10.00;99.90;;;;;;5150690;27;20048;-71
2023/09/03 04:17:04;;;;;;;45.40;5.05;;;10.00;99.90;;;;;;5132755;27;20471;-72
2023/09/03 04:19:29;;;;;;;6.07;2.35;;;9.90;99.90;;;;;;5149211;27;20050;-71
2023/09/03 04:21:55;;;;;;;8.88;2.72;;;10.00;99.90;;;;;;5156138;27;20042;-71
2023/09/03 04:24:20;;;;;;;4.55;2.75;;;9.90;99.90;;;;;;5153803;27;20379;-71
2023/09/03 04:26:46;;;;;;;5.90;3.17;;;9.90;99.90;;;;;;5135939;27;20046;-71
2023/09/03 04:29:12;;;;;;;4.20;3.17;;;9.90;99.90;;;;;;5156506;27;20077;-71
2023/09/03 04:31:39;;;;;;;4.10;2.80;;;10.00;99.90;;;;;;5156149;27;20039;-71
2023/09/03 04:34:06;;;;;;;3.38;2.35;;;10.10;99.90;;;;;;5155925;27;20498;-71
2023/09/03 04:36:33;;;;;;;4.80;3.10;;;10.20;99.90;;;;;;5138240;27;20050;-71
2023/09/03 04:39:00;;;;;;;3.63;2.70;;;10.20;99.90;;;;;;5155520;27;20148;-71
2023/09/03 04:41:25;;;;;;;2.88;2.13;;;10.20;99.90;;;;;;5156160;27;20042;-71
2023/09/03 04:44:06;;;;;;;4.20;2.78;;;10.10;99.90;;;;;;5155783;27;20052;-71
2023/09/03 04:46:32;;;;;;;5.05;2.50;;;10.10;99.90;;;;;;5155913;27;20494;-71
2023/09/03 04:48:58;;;;;;;4.18;2.90;;;10.10;99.90;;;;;;5136443;27;20043;-71
2023/09/03 04:51:23;;;;;;;4.07;2.72;;;10.10;99.90;;;;;;5154804;27;20089;-71
2023/09/03 04:53:49;;;;;;;4.28;3.10;;;10.20;99.90;;;;;;5155332;27;20118;-71
2023/09/03 04:56:15;;;;;;;3.55;2.40;;;10.20;99.90;;;;;;5155699;27;20058;-71
2023/09/03 04:58:40;;;;;;;4.40;2.72;;;10.20;99.90;;;;;;5156101;27;20053;-71
2023/09/03 05:01:14;;;;;;;3.83;2.53;;;10.10;99.90;;;;;;5130367;27;20475;-71
2023/09/03 05:03:40;;;;;;;4.72;3.35;;;10.20;99.90;;;;;;5155796;27;20444;-71
2023/09/03 05:06:05;;;;;;;5.30;3.05;;;10.10;99.90;;;;;;5136906;27;20050;-71
2023/09/03 05:08:31;;;;;;;6.20;3.80;;;10.10;99.90;;;;;;5136663;27;20042;-71
2023/09/03 05:10:57;;;;;;;6.25;3.88;;;10.10;99.90;;;;;;5155261;27;20066;-71
2023/09/03 05:13:22;;;;;;;13.77;4.72;;;10.20;99.90;;;;;;5155615;27;20038;-71
2023/09/03 05:15:51;;;;;;;12.48;4.80;;;10.20;99.90;;;;;;5154969;27;20444;-71
2023/09/03 05:18:17;;;;;;;6.35;4.30;;;10.20;99.90;;;;;;5137040;27;20070;-71
2023/09/03 05:20:42;;;;;;;5.80;3.80;;;10.20;99.90;;;;;;5136795;27;20081;-71
2023/09/03 05:23:08;;;;;;;7.68;4.13;;;10.20;99.90;;;;;;5136414;27;20034;-71
2023/09/03 05:25:34;;;;;;;8.20;4.55;;;10.30;99.90;;;;;;5155559;27;20071;-71
2023/09/03 05:27:59;;;;;;;6.47;4.60;;;10.30;99.90;;;;;;5155049;27;20074;-71
2023/09/03 05:30:26;;;;;;;5.97;4.03;;;10.30;99.90;;;;;;5136939;27;20130;-71
2023/09/03 05:32:51;;;;;;;5.07;3.65;;;10.30;99.90;;;;;;5155756;27;20121;-71
2023/09/03 05:35:17;;;;;;;5.07;3.70;;;10.30;99.90;;;;;;5155765;27;20042;-72
2023/09/03 05:37:43;;;;;;;5.18;3.42;;;10.40;99.90;;;;;;5149734;27;20425;-72
2023/09/03 05:40:10;;;;;;;4.75;3.30;;;10.40;99.90;;;;;;5148035;27;20536;-71
2023/09/03 05:42:35;;;;;;;6.95;3.97;;;10.50;99.90;;;;;;5154985;27;20106;-71
2023/09/03 05:45:01;;;;;;;6.25;4.22;;;10.60;99.90;;;;;;5154620;27;20435;-71
2023/09/03 05:47:27;;;;;;;5.50;3.40;;;10.70;99.90;;;;;;5154973;27;20050;-71
2023/09/03 05:49:57;;;;;;;5.47;3.28;;;10.80;99.90;;;;;;5155060;27;20062;-71
2023/09/03 05:52:22;;;;;;;7.43;4.28;;;10.90;99.90;;;;;;5149061;27;20075;-71
2023/09/03 05:54:48;;;;;;;6.95;4.35;;;11.00;99.90;;;;;;5142205;27;20682;-71
2023/09/03 05:57:14;;;;;;;7.22;4.57;;;11.20;99.90;;;;;;5155023;27;20539;-71
2023/09/03 05:59:40;;;;;;;7.90;5.40;;;11.30;99.90;;;;;;5154912;27;20043;-71
2023/09/03 06:02:05;;;;;;;8.25;5.60;;;11.40;99.90;;;;;;5140996;27;20142;-71
2023/09/03 06:04:31;;;;;;;9.48;6.05;;;11.60;99.90;;;;;;5148876;27;20044;-71
2023/09/03 06:06:57;;;;;;;8.55;5.97;;;11.70;99.90;;;;;;5154737;27;20074;-71
2023/09/03 06:09:22;;;;;;;10.05;6.82;;;11.90;99.90;;;;;;5140838;27;20070;-71
2023/09/03 06:11:49;;;;;;;9.85;6.95;;;12.10;99.90;;;;;;5154815;27;20399;-71
2023/09/03 06:14:14;;;;;;;8.75;6.40;;;12.30;99.90;;;;;;5154610;27;20074;-71
2023/09/03 06:16:40;;;;;;;13.10;7.15;;;12.40;99.90;;;;;;5154613;27;20506;-71
2023/09/03 06:19:06;;;;;;;9.88;7.38;;;12.60;99.90;;;;;;5154563;27;20042;-71
2023/09/03 06:21:31;;;;;;;12.40;7.47;;;12.70;99.90;;;;;;5154233;27;20043;-71
2023/09/03 06:23:57;;;;;;;8.60;6.60;;;12.90;99.90;;;;;;5144769;27;20042;-71
2023/09/03 06:26:23;;;;;;;10.57;7.22;;;13.00;99.90;;;;;;5136090;27;20508;-71
2023/09/03 06:28:48;;;;;;;8.68;5.90;;;13.10;99.90;;;;;;5154674;27;20128;-71
2023/09/03 06:31:14;;;;;;;9.23;6.07;;;13.20;99.90;;;;;;5154197;27;20041;-71
2023/09/03 06:33:40;;;;;;;8.80;6.38;;;13.30;99.90;;;;;;5154330;27;20039;-67
2023/09/03 06:36:07;;;;;;;10.25;6.28;;;13.40;99.90;;;;;;5154625;27;20047;-67
2023/09/03 06:38:33;;;;;;;8.82;6.15;;;13.50;99.90;;;;;;5154338;27;20406;-67
2023/09/03 06:40:58;;;;;;;9.18;6.15;;;13.60;99.90;;;;;;5154938;27;20043;-67
2023/09/03 06:43:24;;;;;;;9.82;6.38;;;13.70;99.90;;;;;;5153750;27;20039;-67
2023/09/03 06:45:50;;;;;;;9.05;6.15;;;13.80;99.90;;;;;;5133936;28;20089;-67
2023/09/03 06:48:15;;;;;;;8.95;6.32;;;13.90;99.90;;;;;;5134018;28;20494;-67
2023/09/03 06:50:41;;;;;;;7.95;5.93;;;13.90;99.90;;;;;;5137473;27;20381;-67
2023/09/03 06:53:07;;;;;;;10.52;6.47;;;14.00;99.90;;;;;;5137313;27;20100;-67
2023/09/03 06:55:33;;;;;;;8.60;5.80;;;14.20;99.90;;;;;;5141400;27;20037;-67
2023/09/03 06:57:59;;;;;;;7.50;5.65;;;14.20;99.90;;;;;;5158076;27;20043;-67
2023/09/03 07:00:25;;;;;;;7.13;5.63;;;14.40;99.90;;;;;;5158202;27;20053;-67
2023/09/03 07:02:51;;;;;;;8.05;5.80;;;14.40;99.90;;;;;;5158647;27;20047;-66
2023/09/03 07:05:16;;;;;;;8.02;5.50;;;14.60;99.90;;;;;;5157988;27;20060;-67
2023/09/03 07:07:42;;;;;;;8.20;6.07;;;14.70;99.90;;;;;;5138000;27;20065;-67
2023/09/03 07:10:08;;;;;;;7.90;5.60;;;14.80;99.90;;;;;;5136796;27;20476;-66
2023/09/03 07:12:34;;;;;;;9.18;5.30;;;14.90;99.90;;;;;;5137236;27;20122;-66
2023/09/03 07:14:59;;;;;;;7.75;5.47;;;15.00;99.90;;;;;;5137485;27;20468;-66
2023/09/03 07:17:25;;;;;;;6.53;5.07;;;15.10;99.90;;;;;;5137306;27;20047;-66
2023/09/03 07:19:54;;;;;;;6.00;4.40;;;15.20;99.90;;;;;;5137166;27;20031;-66
2023/09/03 07:22:20;;;;;;;6.65;4.60;;;15.30;99.90;;;;;;5136811;27;20519;-66
2023/09/03 07:24:46;;;;;;;3.80;2.72;;;15.40;99.90;;;;;;5118854;27;20086;-66
2023/09/03 07:27:11;;;;;;;6.78;3.60;;;15.50;99.90;;;;;;5137295;27;20404;-67
2023/09/03 07:29:37;;;;;;;3.85;3.08;;;15.60;99.90;;;;;;5137233;27;20034;-66
2023/09/03 07:32:03;;;;;;;4.97;3.47;;;15.70;99.90;;;;;;5136235;27;20047;-66
2023/09/03 07:34:28;;;;;;;4.80;3.28;;;15.80;99.90;;;;;;5136890;27;20039;-66
2023/09/03 07:36:54;;;;;;;4.32;2.90;;;15.90;99.90;;;;;;5145385;27;20119;-67
2023/09/03 07:39:20;;;;;;;5.53;2.47;;;16.00;99.90;;;;;;5115397;27;20057;-65
2023/09/03 07:41:46;;;;;;;4.35;2.75;;;16.10;99.90;;;;;;5129300;27;20043;-66
2023/09/03 07:44:11;;;;;;;5.57;3.10;;;16.20;99.90;;;;;;5152790;27;20039;-65
2023/09/03 07:46:37;;;;;;;5.35;3.47;;;16.30;99.90;;;;;;5154108;27;20054;-66
2023/09/03 07:49:03;;;;;;;4.45;2.92;;;16.40;99.90;;;;;;5156074;27;20046;-65
2023/09/03 07:51:29;;;;;;;4.28;3.00;;;16.50;99.90;;;;;;5156229;27;20074;-66
2023/09/03 07:53:54;;;;;;;4.28;2.65;;;16.60;99.90;;;;;;5137571;27;20039;-66
2023/09/03 07:56:20;;;;;;;4.70;2.20;;;16.70;99.90;;;;;;5156160;27;20050;-66
2023/09/03 07:58:46;;;;;;;3.92;2.00;;;16.80;99.90;;;;;;5156372;27;20126;-66
2023/09/03 08:01:14;;;;;;;4.70;2.60;;;16.90;99.90;;;;;;5155360;27;20123;-66
2023/09/03 08:03:41;;;;;;;3.72;1.90;;;16.90;99.90;;;;;;5137932;27;20043;-65
2023/09/03 08:06:07;;;;;;;3.13;1.88;;;17.00;99.90;;;;;;5155410;27;20113;-65
2023/09/03 08:08:34;;;;;;;2.28;1.60;;;17.00;99.90;;;;;;5156124;27;20099;-65
2023/09/03 08:11:00;;;;;;;4.10;1.95;;;17.00;99.90;;;;;;5156194;27;20031;-66
2023/09/03 08:13:26;;;;;;;2.53;1.63;;;17.10;99.90;;;;;;5155776;27;20072;-66
2023/09/03 08:15:52;;;;;;;3.88;2.00;;;17.10;99.90;;;;;;5155639;27;20046;-66
2023/09/03 08:18:18;;;;;;;3.85;2.13;;;17.10;99.90;;;;;;5156166;27;20141;-65
2023/09/03 08:20:44;;;;;;;4.05;1.98;;;17.10;99.90;;;;;;5155778;27;20075;-66
2023/09/03 08:23:11;;;;;;;2.67;1.70;;;17.20;99.90;;;;;;5155235;27;20042;-65
2023/09/03 08:25:37;;;;;;;5.03;2.28;;;17.20;99.90;;;;;;5136617;27;20046;-66
2023/09/03 08:28:04;;;;;;;4.35;2.10;;;17.30;99.90;;;;;;5155082;27;20050;-66
2023/09/03 08:30:29;;;;;;;4.75;2.00;;;17.40;99.90;;;;;;5155449;27;20509;-66
2023/09/03 08:32:55;;;;;;;2.95;2.00;;;17.50;99.90;;;;;;5146955;27;20051;-66
2023/09/03 08:35:21;;;;;;;3.58;1.77;;;17.50;99.90;;;;;;5155455;27;20058;-66
2023/09/03 08:37:46;;;;;;;3.25;1.40;;;17.60;99.90;;;;;;5150090;27;20498;-66
2023/09/03 08:40:12;;;;;;;5.43;1.75;;;17.70;99.90;;;;;;5155774;27;20045;-65
2023/09/03 08:42:42;;;;;;;3.83;2.97;;;17.70;99.90;;;;;;5155289;27;20122;-66
2023/09/03 08:45:11;;;;;;;3.42;1.70;;;17.80;99.90;;;;;;5155277;27;20105;-66
2023/09/03 08:47:40;;;;;;;3.40;2.20;;;17.90;99.90;;;;;;5136689;27;20063;-66
2023/09/03 08:50:09;;;;;;;3.55;2.30;;;17.90;99.90;;;;;;5154411;27;20383;-66
2023/09/03 08:52:37;;;;;;;4.85;2.67;;;17.90;99.90;;;;;;5154733;27;20090;-66
2023/09/03 08:55:05;;;;;;;3.20;2.28;;;18.00;99.90;;;;;;5137147;27;20040;-67
2023/09/03 08:57:34;;;;;;;4.03;2.47;;;18.10;99.90;;;;;;5154779;27;20050;-66
2023/09/03 09:00:07;;;;;;;4.15;2.78;;;18.20;99.90;;;;;;5154800;27;20049;-66
2023/09/03 09:02:34;;;;;;;4.20;2.78;;;18.40;99.90;;;;;;5151934;27;20038;-67
2023/09/03 09:05:05;;;;;;;4.38;2.60;;;18.40;99.90;;;;;;5145473;27;20454;-66
2023/09/03 09:07:31;;;;;;;3.78;2.60;;;18.50;99.90;;;;;;5143371;27;20472;-66
2023/09/03 09:10:01;;;;;;;3.90;2.40;;;18.40;99.90;;;;;;5120369;27;20046;-66
2023/09/03 09:12:46;;;;;;;2.47;1.90;;;18.40;99.90;;;;;;5119690;27;20046;-65
2023/09/03 09:15:11;;;;;;;3.20;2.10;;;18.40;99.90;;;;;;5154838;27;20118;-65
2023/09/03 09:17:38;;;;;;;3.45;2.00;;;18.50;99.90;;;;;;5154435;27;20125;-65
2023/09/03 09:20:15;;;;;;;3.70;1.75;;;18.60;99.90;;;;;;5154170;27;20081;-65
2023/09/03 09:22:45;;;;;;;3.28;2.25;;;18.60;99.90;;;;;;5154060;27;20042;-65
2023/09/03 09:25:22;;;;;;;2.70;1.80;;;18.50;99.90;;;;;;5154909;27;20045;-65
2023/09/03 09:27:48;;;;;;;3.00;2.30;;;18.50;99.90;;;;;;5154037;27;20074;-64
2023/09/03 09:30:16;;;;;;;4.78;2.05;;;18.70;99.90;;;;;;5154093;27;20050;-65
2023/09/03 09:32:43;;;;;;;3.50;1.15;;;18.70;99.90;;;;;;5146232;27;20045;-65
2023/09/03 09:35:09;;;;;;;2.33;1.20;;;18.60;99.90;;;;;;5153558;27;20503;-65
2023/09/03 09:37:39;;;;;;;3.00;1.50;;;18.60;99.90;;;;;;5115066;27;20086;-65
2023/09/03 09:40:06;;;;;;;2.83;1.50;;;18.60;99.90;;;;;;5150147;27;20407;-65
2023/09/03 09:42:32;;;;;;;2.40;1.23;;;18.70;99.90;;;;;;5153521;27;20041;-65
2023/09/03 09:45:02;;;;;;;3.72;1.38;;;18.60;99.90;;;;;;5154435;27;20429;-66
2023/09/03 09:47:28;;;;;;;2.88;1.50;;;18.60;99.90;;;;;;5118623;27;20085;-65
2023/09/03 09:49:54;;;;;;;2.60;1.60;;;18.70;99.90;;;;;;5154362;27;20086;-66
2023/09/03 09:52:21;;;;;;;3.47;1.40;;;19.00;99.90;;;;;;5154208;27;20042;-66
2023/09/03 09:54:48;;;;;;;2.40;1.33;;;19.10;99.90;;;;;;5155088;27;20038;-67
2023/09/03 09:57:22;;;;;;;3.15;1.60;;;19.30;99.90;;;;;;5154408;27;20130;-67
2023/09/03 10:00:01;;;;;;;2.58;1.30;;;19.50;99.90;;;;;;5154907;27;20046;-66
2023/09/03 10:02:27;;;;;;;3.45;1.50;;;19.70;99.90;;;;;;5136404;27;20080;-67
2023/09/03 10:04:53;;;;;;;3.58;1.40;;;19.80;99.90;;;;;;5154341;27;20394;-66
2023/09/03 10:07:19;;;;;;;2.42;1.50;;;19.80;99.90;;;;;;5136562;27;20042;-66
2023/09/03 10:09:46;;;;;;;2.95;1.42;;;19.90;99.90;;;;;;5154868;27;20119;-66
2023/09/03 10:12:12;;;;;;;3.10;1.10;;;19.90;99.90;;;;;;5154040;27;20284;-69
2023/09/03 10:14:39;;;;;;;2.70;1.13;;;19.90;99.90;;;;;;5154202;27;20103;-67
2023/09/03 10:17:07;;;;;;;2.05;1.25;;;20.00;99.90;;;;;;5135718;27;20499;-66
2023/09/03 10:19:49;;;;;;;1.88;1.17;;;20.10;99.90;;;;;;5153948;27;20047;-66
2023/09/03 10:22:18;;;;;;;2.05;0.90;;;20.10;99.90;;;;;;5154194;27;20050;-67
2023/09/03 10:24:51;;;;;;;1.73;1.10;;;20.20;99.90;;;;;;5156232;27;20130;-66
2023/09/03 10:27:22;;;;;;;2.47;1.10;;;20.30;99.90;;;;;;5158663;27;20049;-66
2023/09/03 10:29:49;;;;;;;1.83;0.93;;;20.40;99.90;;;;;;5158768;27;20051;-66
2023/09/03 10:32:16;;;;;;;1.58;0.98;;;20.40;99.90;;;;;;5158074;27;20042;-67
2023/09/03 10:34:42;;;;;;;2.40;1.13;;;20.40;99.90;;;;;;5139522;27;20043;-67
2023/09/03 10:37:10;;;;;;;2.13;1.10;;;20.50;99.90;;;;;;5140829;27;20047;-67
2023/09/03 10:39:40;;;;;;;2.53;1.25;;;20.60;99.90;;;;;;5143463;27;20045;-68
2023/09/03 10:42:15;;;;;;;2.03;1.20;;;20.70;99.90;;;;;;5158308;27;20083;-68
2023/09/03 10:44:44;;;;;;;1.90;1.20;;;20.80;99.90;;;;;;5139964;27;20502;-69
2023/09/03 10:47:11;;;;;;;2.47;1.10;;;20.80;99.90;;;;;;5158421;27;20043;-67
2023/09/03 10:49:45;;;;;;;2.70;1.10;;;20.90;99.90;;;;;;5157957;27;20055;-67
2023/09/03 10:52:30;;;;;;;2.50;1.13;;;21.10;99.90;;;;;;5157812;27;20058;-67
2023/09/03 10:55:17;;;;;;;2.45;1.15;;;21.00;99.90;;;;;;5139561;27;20436;-69
2023/09/03 10:57:45;;;;;;;2.50;1.30;;;20.90;99.90;;;;;;5157315;27;20489;-68
2023/09/03 11:00:13;;;;;;;2.72;1.10;;;20.90;99.90;;;;;;5157918;27;20394;-68
2023/09/03 11:02:39;;;;;;;2.45;1.42;;;20.90;99.90;;;;;;5157451;27;20043;-68
2023/09/03 11:05:15;;;;;;;2.22;1.20;;;21.10;99.90;;;;;;5154724;27;20053;-68
2023/09/03 11:07:41;;;;;;;;;;;21.10;99.90;;;;;;5137651;27;20039;-68
2023/09/03 11:10:27;;;;;;;2.10;1.20;;;21.00;99.90;;;;;;5148352;27;19923;-67
2023/09/03 11:12:53;;;;;;;2.78;1.20;;;21.00;99.90;;;;;;5129338;27;20050;-67
2023/09/03 11:15:20;;;;;;;2.13;1.10;;;20.90;99.90;;;;;;5144728;27;20047;-67
2023/09/03 11:17:50;;;;;;;2.50;1.20;;;20.90;99.90;;;;;;5136761;27;20096;-67
2023/09/03 11:20:33;;;;;;;2.03;1.13;;;20.90;99.90;;;;;;5136808;27;20051;-68
2023/09/03 11:23:01;;;;;;;3.75;1.02;;;20.90;99.90;;;;;;5136685;27;20043;-65
2023/09/03 11:25:32;;;;;;;1.95;0.98;;;20.80;99.90;;;;;;5137054;27;20121;-66
2023/09/03 11:27:58;;;;;;;1.70;0.90;;;20.80;99.90;;;;;;5137149;27;20079;-66
2023/09/03 11:30:23;;;;;;;2.67;1.00;;;20.90;99.90;;;;;;5137165;27;20466;-66
2023/09/03 11:32:49;;;;;;;2.22;1.02;;;21.10;99.90;;;;;;5136382;27;20475;-66
2023/09/03 11:35:15;;;;;;;2.15;1.10;;;21.10;99.90;;;;;;5118450;27;20051;-66
2023/09/03 11:37:40;;;;;;;1.90;0.82;;;21.10;99.90;;;;;;5134310;27;20039;-66
2023/09/03 11:40:07;;;;;;;2.03;0.90;;;21.00;99.90;;;;;;5136947;27;20054;-66
2023/09/03 11:42:33;;;;;;;1.77;0.80;;;21.00;99.90;;;;;;5136755;27;20043;-66
2023/09/03 11:45:00;;;;;;;1.65;0.95;;;21.00;99.90;;;;;;5151118;27;20485;-66
2023/09/03 11:47:26;;;;;;;1.85;0.90;;;21.10;99.90;;;;;;5157477;27;20050;-66
2023/09/03 11:49:51;;;;;;;2.75;1.00;;;21.10;99.90;;;;;;5157890;27;20498;-66
2023/09/03 11:52:17;;;;;;;1.75;0.90;;;21.10;99.90;;;;;;5155587;27;20516;-67
2023/09/03 11:54:43;;;;;;;2.38;1.15;;;21.10;99.90;;;;;;5156781;27;20078;-66
2023/09/03 11:57:12;;;;;;;1.90;0.90;;;21.10;99.90;;;;;;5157354;27;20038;-66
2023/09/03 11:59:38;;;;;;;1.88;1.10;;;21.10;99.90;;;;;;5156733;27;20517;-66
2023/09/03 12:02:04;;;;;;;1.90;1.00;;;21.10;99.90;;;;;;5150629;27;20043;-66
2023/09/03 12:04:32;;;;;;;1.80;1.00;;;21.10;99.90;;;;;;5154143;27;20043;-66
2023/09/03 12:06:58;;;;;;;2.72;1.10;;;21.10;99.90;;;;;;5156995;27;20047;-67
2023/09/03 12:09:24;;;;;;;2.05;0.98;;;21.20;99.90;;;;;;5157229;27;20057;-66
2023/09/03 12:11:50;;;;;;;2.10;1.10;;;21.30;99.90;;;;;;5156421;27;20103;-67
2023/09/03 12:14:29;;;;;;;2.97;1.20;;;21.30;99.90;;;;;;5138324;27;20046;-66
2023/09/03 12:16:55;;;;;;;3.13;1.30;;;21.30;99.90;;;;;;5154801;27;20049;-67
2023/09/03 12:19:21;;;;;;;2.08;1.30;;;21.30;99.90;;;;;;5155941;27;20047;-69
2023/09/03 12:21:54;;;;;;;1.80;1.20;;;21.30;99.90;;;;;;5156060;27;20043;-67
2023/09/03 12:24:29;;;;;;;2.40;1.52;;;21.30;99.90;;;;;;5156429;27;20047;-67
2023/09/03 12:27:03;;;;;;;2.00;1.33;;;21.20;99.90;;;;;;5156540;27;20149;-67
2023/09/03 12:29:36;;;;;;;2.33;1.40;;;21.20;99.90;;;;;;5156301;27;20077;-67
2023/09/03 12:32:02;;;;;;;2.83;1.05;;;21.30;99.90;;;;;;5156319;27;20058;-68
2023/09/03 12:34:35;;;;;;;2.95;1.30;;;21.30;99.90;;;;;;5156111;27;20043;-68
2023/09/03 12:37:02;;;;;;;3.20;1.30;;;21.30;99.90;;;;;;5138781;27;20047;-67
2023/09/03 12:39:40;;;;;;;1.77;1.10;;;21.30;99.90;;;;;;5155337;27;20048;-67
2023/09/03 12:42:08;;;;;;;2.22;1.20;;;21.40;99.90;;;;;;5156403;27;20047;-66
2023/09/03 12:44:34;;;;;;;1.75;0.98;;;21.70;99.90;;;;;;5144843;27;20388;-67
2023/09/03 12:47:01;;;;;;;2.28;1.13;;;22.40;99.90;;;;;;5134791;27;20046;-67